Time;durP1;ratioP1;P1;durP2;ratioP2;P2;SDS_P1;SDS_P2;PMS_P1;PMS_P2;Temp;Humidity;BMP_temperature;BMP_pressure;BME280_temperature;BME280_humidity;BME280_pressure;Samples;Min_cycle;Max_cycle;Signal;HPM_P1;HPM_P2
2021/09/24 00:01:56;;;;;;;27.48;5.45;;;14.00;99.90;;;;;;4930598;29;20039;-91
2021/09/24 00:04:22;;;;;;;24.05;5.63;;;14.00;99.90;;;;;;4929279;29;20042;-91
2021/09/24 00:06:48;;;;;;;20.48;5.07;;;14.00;99.90;;;;;;4926903;29;20135;-91
2021/09/24 00:09:13;;;;;;;26.13;5.10;;;13.90;99.90;;;;;;4927162;29;20032;-90
2021/09/24 00:11:42;;;;;;;30.05;5.90;;;13.90;99.90;;;;;;4923399;29;20024;-91
2021/09/24 00:14:10;;;;;;;32.22;6.68;;;13.80;99.90;;;;;;4921452;29;20027;-91
2021/09/24 00:16:36;;;;;;;22.00;5.13;;;13.80;99.90;;;;;;4921170;29;20049;-91
2021/09/24 00:19:02;;;;;;;21.70;5.28;;;13.80;99.90;;;;;;4921353;29;20042;-90
2021/09/24 00:21:28;;;;;;;25.20;4.97;;;13.80;99.90;;;;;;4921521;29;20040;-89
2021/09/24 00:23:54;;;;;;;18.92;4.93;;;13.80;99.90;;;;;;4920928;29;20040;-89
2021/09/24 00:26:20;;;;;;;21.80;4.40;;;13.80;99.90;;;;;;4920899;29;20024;-91
2021/09/24 00:28:45;;;;;;;22.35;4.68;;;13.80;99.90;;;;;;4920847;29;20094;-90
2021/09/24 00:31:11;;;;;;;28.40;5.57;;;13.80;99.90;;;;;;4921058;29;20509;-91
2021/09/24 00:33:37;;;;;;;17.02;4.07;;;13.80;99.90;;;;;;4919928;29;20111;-90
2021/09/24 00:36:03;;;;;;;20.65;4.13;;;13.80;99.90;;;;;;4920448;29;20031;-90
2021/09/24 00:38:28;;;;;;;19.35;3.03;;;13.80;99.90;;;;;;4920181;29;20028;-92
2021/09/24 00:40:54;;;;;;;17.98;3.58;;;13.80;99.90;;;;;;4920324;29;20031;-91
2021/09/24 00:43:20;;;;;;;16.98;4.40;;;13.80;99.90;;;;;;4937285;29;20063;-91
2021/09/24 00:45:46;;;;;;;14.68;3.40;;;13.80;99.90;;;;;;4920332;29;20024;-90
2021/09/24 00:48:11;;;;;;;17.00;3.28;;;13.80;99.90;;;;;;4920281;29;20032;-90
2021/09/24 00:50:37;;;;;;;18.65;3.10;;;13.80;99.90;;;;;;4921135;29;20028;-92
2021/09/24 00:53:03;;;;;;;19.52;3.80;;;13.80;99.90;;;;;;4921513;29;20028;-90
2021/09/24 00:55:29;;;;;;;17.13;3.47;;;13.80;99.90;;;;;;4921594;29;20034;-91
2021/09/24 00:57:55;;;;;;;12.05;3.17;;;13.80;99.90;;;;;;4921442;29;20038;-91
2021/09/24 01:00:21;;;;;;;14.57;3.20;;;13.80;99.90;;;;;;4923935;29;20110;-90
2021/09/24 01:02:47;;;;;;;22.40;3.85;;;13.80;99.90;;;;;;4924475;29;20024;-91
2021/09/24 01:05:14;;;;;;;10.55;2.97;;;13.80;99.90;;;;;;4924789;29;20095;-91
2021/09/24 01:07:43;;;;;;;19.95;3.50;;;13.80;99.90;;;;;;4927191;29;20031;-90
2021/09/24 01:10:11;;;;;;;16.15;3.05;;;13.80;99.90;;;;;;4943403;29;20113;-89
2021/09/24 01:12:37;;;;;;;14.50;3.05;;;13.80;99.90;;;;;;4942853;29;20035;-91
2021/09/24 01:15:06;;;;;;;17.73;3.10;;;13.90;99.90;;;;;;4942540;29;20027;-91
2021/09/24 01:17:34;;;;;;;19.05;3.15;;;13.90;99.90;;;;;;4925098;29;20027;-89
2021/09/24 01:20:00;;;;;;;18.85;3.45;;;13.80;99.90;;;;;;4923974;29;20106;-90
2021/09/24 01:22:26;;;;;;;16.58;2.90;;;13.80;99.90;;;;;;4922697;29;20054;-89
2021/09/24 01:24:51;;;;;;;10.77;2.80;;;13.90;99.90;;;;;;4939221;29;20051;-89
2021/09/24 01:27:17;;;;;;;17.40;3.40;;;13.80;99.90;;;;;;4937468;29;20375;-89
2021/09/24 01:29:48;;;;;;;18.80;3.05;;;13.90;99.90;;;;;;4937335;29;20486;-90
2021/09/24 01:32:13;;;;;;;13.65;3.08;;;13.80;99.90;;;;;;4919585;29;20101;-89
2021/09/24 01:34:39;;;;;;;16.70;2.88;;;13.90;99.90;;;;;;4920727;29;20061;-89
2021/09/24 01:37:04;;;;;;;19.92;3.72;;;13.90;99.90;;;;;;4921320;29;20027;-90
2021/09/24 01:39:30;;;;;;;25.13;3.85;;;13.90;99.90;;;;;;4920939;29;20123;-90
2021/09/24 01:41:56;;;;;;;18.38;3.88;;;13.80;99.90;;;;;;4920302;29;20087;-90
2021/09/24 01:44:21;;;;;;;13.95;3.08;;;13.90;99.90;;;;;;4920141;29;20047;-89
2021/09/24 01:46:47;;;;;;;11.88;3.13;;;13.90;99.90;;;;;;4921238;29;20119;-90
2021/09/24 01:49:13;;;;;;;15.82;3.40;;;13.80;99.90;;;;;;4918857;29;20042;-91
2021/09/24 01:51:41;;;;;;;19.85;4.78;;;13.80;99.90;;;;;;4918843;29;20127;-89
2021/09/24 01:54:09;;;;;;;20.73;3.67;;;13.80;99.90;;;;;;4920440;29;20028;-89
2021/09/24 01:56:35;;;;;;;14.38;3.30;;;13.80;99.90;;;;;;4918945;29;20032;-90
2021/09/24 01:59:00;;;;;;;13.88;3.72;;;13.70;99.90;;;;;;4919055;29;20146;-91
2021/09/24 02:01:26;;;;;;;21.25;3.67;;;13.70;99.90;;;;;;4915650;29;20199;-91
2021/09/24 02:03:52;;;;;;;14.60;3.78;;;13.60;99.90;;;;;;4915633;29;20043;-90
2021/09/24 02:06:17;;;;;;;15.50;3.85;;;13.60;99.90;;;;;;4915590;29;20039;-91
2021/09/24 02:08:43;;;;;;;17.80;4.50;;;13.60;99.90;;;;;;4915100;29;20036;-90
2021/09/24 02:11:10;;;;;;;21.35;4.65;;;13.50;99.90;;;;;;4915129;29;20061;-91
2021/09/24 02:13:37;;;;;;;14.80;3.92;;;13.50;99.90;;;;;;4916821;29;20032;-88
2021/09/24 02:16:03;;;;;;;17.52;4.28;;;13.50;99.90;;;;;;4915373;29;20039;-88
2021/09/24 02:18:29;;;;;;;23.92;4.10;;;13.50;99.90;;;;;;4915080;29;20024;-91
2021/09/24 02:20:55;;;;;;;20.25;5.13;;;13.40;99.90;;;;;;4915022;29;20127;-91
2021/09/24 02:23:21;;;;;;;14.70;3.85;;;13.40;99.90;;;;;;4916354;29;20108;-91
2021/09/24 02:25:46;;;;;;;22.65;3.90;;;13.40;99.90;;;;;;4899418;29;20118;-90
2021/09/24 02:28:12;;;;;;;21.23;4.15;;;13.40;99.90;;;;;;4915077;29;20028;-91
2021/09/24 02:30:38;;;;;;;15.77;4.47;;;13.30;99.90;;;;;;4915039;29;20394;-91
2021/09/24 02:33:03;;;;;;;13.68;4.18;;;13.30;99.90;;;;;;4915696;29;20036;-91
2021/09/24 02:35:29;;;;;;;17.10;3.80;;;13.30;99.90;;;;;;4914952;29;20031;-91
2021/09/24 02:37:54;;;;;;;17.75;3.90;;;13.30;99.90;;;;;;4915216;29;20028;-90
2021/09/24 02:40:20;;;;;;;17.00;5.13;;;13.30;99.90;;;;;;4914992;29;20542;-90
2021/09/24 02:42:46;;;;;;;23.30;4.38;;;13.20;99.90;;;;;;4914898;29;20493;-90
2021/09/24 02:45:12;;;;;;;19.83;4.47;;;13.20;99.90;;;;;;4914887;29;20475;-92
2021/09/24 02:47:38;;;;;;;13.15;3.92;;;13.10;99.90;;;;;;4899168;29;20035;-91
2021/09/24 02:50:08;;;;;;;14.20;4.03;;;13.10;99.90;;;;;;4915355;29;20055;-92
2021/09/24 02:52:34;;;;;;;14.90;4.20;;;13.10;99.90;;;;;;4916414;29;20027;-91
2021/09/24 02:55:00;;;;;;;14.82;5.10;;;13.00;99.90;;;;;;4915313;29;20172;-92
2021/09/24 02:57:26;;;;;;;15.48;4.15;;;13.00;99.90;;;;;;4916936;29;20123;-91
2021/09/24 02:59:51;;;;;;;18.80;4.63;;;13.00;99.90;;;;;;4921988;29;20051;-90
2021/09/24 03:02:17;;;;;;;13.40;4.93;;;13.00;99.90;;;;;;4923006;29;20398;-91
2021/09/24 03:04:43;;;;;;;23.00;5.45;;;12.90;99.90;;;;;;4922543;29;20044;-90
2021/09/24 03:07:09;;;;;;;13.70;3.92;;;12.90;99.90;;;;;;4923354;29;20038;-89
2021/09/24 03:09:35;;;;;;;12.80;4.57;;;12.80;99.90;;;;;;4923927;29;20570;-90
2021/09/24 03:12:03;;;;;;;11.18;4.25;;;12.90;99.90;;;;;;4922044;29;20083;-89
2021/09/24 03:14:28;;;;;;;14.13;4.72;;;12.90;99.90;;;;;;4922272;29;20036;-89
2021/09/24 03:16:54;;;;;;;18.33;5.45;;;12.80;99.90;;;;;;4922175;29;20402;-89
2021/09/24 03:19:20;;;;;;;13.65;4.38;;;12.80;99.90;;;;;;4921821;29;20039;-89
2021/09/24 03:21:47;;;;;;;15.98;4.95;;;12.80;99.90;;;;;;4921659;29;20024;-89
2021/09/24 03:24:13;;;;;;;14.48;4.15;;;12.80;99.90;;;;;;4921521;29;20053;-90
2021/09/24 03:26:39;;;;;;;15.63;5.18;;;12.80;99.90;;;;;;4921716;29;20027;-89
2021/09/24 03:29:04;;;;;;;13.15;4.75;;;12.80;99.90;;;;;;4921765;29;20032;-89
2021/09/24 03:31:30;;;;;;;15.05;4.55;;;12.80;99.90;;;;;;4921690;29;20024;-91
2021/09/24 03:33:56;;;;;;;12.52;4.50;;;12.80;99.90;;;;;;4921531;29;20034;-90
2021/09/24 03:36:21;;;;;;;14.23;5.05;;;12.80;99.90;;;;;;4921778;29;20035;-90
2021/09/24 03:38:47;;;;;;;8.75;3.60;;;12.80;99.90;;;;;;4938836;29;20034;-92
2021/09/24 03:41:13;;;;;;;12.07;3.85;;;12.80;99.90;;;;;;4922326;29;20034;-90
2021/09/24 03:43:39;;;;;;;12.30;4.10;;;12.80;99.90;;;;;;4921985;29;20055;-90
2021/09/24 03:46:05;;;;;;;14.73;4.32;;;12.80;99.90;;;;;;4921277;29;20030;-88
2021/09/24 03:48:31;;;;;;;13.10;4.35;;;12.80;99.90;;;;;;4923783;29;20091;-91
2021/09/24 03:50:56;;;;;;;11.27;3.67;;;12.80;99.90;;;;;;4932163;29;20020;-92
2021/09/24 03:53:22;;;;;;;16.63;4.85;;;12.80;99.90;;;;;;4931729;29;20027;-91
2021/09/24 03:55:52;;;;;;;13.20;5.40;;;12.80;99.90;;;;;;4928124;29;20095;-92
2021/09/24 03:58:18;;;;;;;13.30;4.27;;;12.80;99.90;;;;;;4926817;29;20028;-91
2021/09/24 04:00:44;;;;;;;14.27;5.03;;;12.80;99.90;;;;;;4924647;29;20362;-91
2021/09/24 04:03:10;;;;;;;13.65;4.93;;;12.80;99.90;;;;;;4920701;29;20556;-91
2021/09/24 04:05:35;;;;;;;12.25;4.30;;;12.80;99.90;;;;;;4920302;29;20036;-90
2021/09/24 04:08:01;;;;;;;16.20;5.15;;;12.80;99.90;;;;;;4919673;29;20027;-90
2021/09/24 04:10:27;;;;;;;10.20;4.03;;;12.80;99.90;;;;;;4920015;29;20086;-90
2021/09/24 04:12:52;;;;;;;18.48;5.35;;;12.80;99.90;;;;;;4920232;29;20482;-91
2021/09/24 04:15:18;;;;;;;12.15;5.32;;;12.80;99.90;;;;;;4937049;29;20548;-89
2021/09/24 04:17:44;;;;;;;15.02;5.82;;;12.80;99.90;;;;;;4919886;29;20038;-91
2021/09/24 04:20:11;;;;;;;12.07;4.45;;;12.70;99.90;;;;;;4936777;29;20096;-91
2021/09/24 04:22:36;;;;;;;21.98;7.93;;;12.70;99.90;;;;;;4920381;29;20122;-91
2021/09/24 04:25:03;;;;;;;19.75;7.50;;;12.70;99.90;;;;;;4920061;29;20126;-89
2021/09/24 04:27:29;;;;;;;16.20;7.95;;;12.80;99.90;;;;;;4920547;29;20040;-90
2021/09/24 04:29:55;;;;;;;14.55;7.47;;;12.70;99.90;;;;;;4920450;29;20032;-90
2021/09/24 04:32:21;;;;;;;19.35;8.10;;;12.80;99.90;;;;;;4920599;29;20069;-90
2021/09/24 04:34:46;;;;;;;20.92;8.73;;;12.70;99.90;;;;;;4920167;29;20139;-90
2021/09/24 04:37:12;;;;;;;17.25;8.23;;;12.70;99.90;;;;;;4920479;29;20031;-91
2021/09/24 04:39:38;;;;;;;17.73;8.63;;;12.70;99.90;;;;;;4920769;29;20038;-90
2021/09/24 04:42:03;;;;;;;18.77;8.73;;;12.70;99.90;;;;;;4920347;29;20042;-90
2021/09/24 04:44:29;;;;;;;17.52;8.98;;;12.70;99.90;;;;;;4920311;29;20040;-90
2021/09/24 04:46:55;;;;;;;22.30;9.10;;;12.70;99.90;;;;;;4920361;29;20039;-90
2021/09/24 04:49:21;;;;;;;18.58;9.40;;;12.80;99.90;;;;;;4920443;29;20500;-91
2021/09/24 04:51:47;;;;;;;21.88;9.98;;;12.70;99.90;;;;;;4920235;29;20019;-90
2021/09/24 04:54:12;;;;;;;20.48;9.40;;;12.80;99.90;;;;;;4920693;29;20146;-91
2021/09/24 04:56:38;;;;;;;22.40;9.38;;;12.80;99.90;;;;;;4920697;29;20028;-91
2021/09/24 04:59:04;;;;;;;22.50;9.75;;;12.80;99.90;;;;;;4920128;29;20122;-91
2021/09/24 05:01:29;;;;;;;20.63;9.05;;;12.80;99.90;;;;;;4919883;29;20055;-92
2021/09/24 05:03:55;;;;;;;14.90;7.28;;;12.70;99.90;;;;;;4919910;29;20079;-90
2021/09/24 05:06:21;;;;;;;16.70;7.63;;;12.70;99.90;;;;;;4919781;29;20083;-92
2021/09/24 05:08:46;;;;;;;23.08;8.73;;;12.70;99.90;;;;;;4919858;29;20034;-92
2021/09/24 05:11:12;;;;;;;12.20;8.05;;;12.80;99.90;;;;;;4920086;29;20035;-92
2021/09/24 05:13:38;;;;;;;16.25;7.80;;;12.80;99.90;;;;;;4919606;29;20028;-91
2021/09/24 05:16:03;;;;;;;18.63;8.35;;;12.80;99.90;;;;;;4919903;29;20055;-90
2021/09/24 05:18:29;;;;;;;25.05;9.82;;;12.80;99.90;;;;;;4919503;29;20034;-92
2021/09/24 05:20:55;;;;;;;22.98;8.35;;;12.80;99.90;;;;;;4919683;29;20087;-91
2021/09/24 05:23:20;;;;;;;13.57;7.68;;;12.80;99.90;;;;;;4919601;29;20065;-90
2021/09/24 05:25:46;;;;;;;17.55;8.10;;;12.80;99.90;;;;;;4936833;29;20500;-90
2021/09/24 05:28:12;;;;;;;20.88;8.10;;;12.80;99.90;;;;;;4919596;29;20028;-91
2021/09/24 05:30:37;;;;;;;19.42;8.23;;;12.80;99.90;;;;;;4919372;29;20039;-92
2021/09/24 05:33:03;;;;;;;14.25;8.25;;;12.80;99.90;;;;;;4919741;29;20024;-92
2021/09/24 05:35:29;;;;;;;17.10;7.97;;;12.80;99.90;;;;;;4919977;29;20067;-91
2021/09/24 05:37:54;;;;;;;13.32;7.80;;;12.80;99.90;;;;;;4919522;29;20118;-91
2021/09/24 05:40:20;;;;;;;10.93;7.13;;;12.80;99.90;;;;;;4919521;29;20032;-91
2021/09/24 05:42:46;;;;;;;15.50;7.75;;;12.80;99.90;;;;;;4919546;29;20034;-92
2021/09/24 05:45:14;;;;;;;14.57;7.90;;;12.80;99.90;;;;;;4919207;29;20489;-92
2021/09/24 05:47:41;;;;;;;16.67;8.77;;;12.80;99.90;;;;;;4919350;29;20028;-92
2021/09/24 05:50:12;;;;;;;20.83;8.68;;;12.80;99.90;;;;;;4919381;29;20035;-91
2021/09/24 05:52:40;;;;;;;13.30;7.32;;;12.80;99.90;;;;;;4919237;29;20042;-91
2021/09/24 05:55:08;;;;;;;16.17;7.80;;;12.80;99.90;;;;;;4919387;29;20114;-92
2021/09/24 05:57:33;;;;;;;16.77;8.27;;;12.80;99.90;;;;;;4919186;29;20395;-91
2021/09/24 05:59:59;;;;;;;14.95;8.02;;;12.80;99.90;;;;;;4918869;29;20046;-90
2021/09/24 06:02:25;;;;;;;18.17;8.70;;;12.90;99.90;;;;;;4918932;29;20482;-91
2021/09/24 06:04:50;;;;;;;17.10;8.18;;;12.80;99.90;;;;;;4918732;29;20040;-90
2021/09/24 06:07:16;;;;;;;21.00;8.93;;;12.80;99.90;;;;;;4936089;29;20066;-92
2021/09/24 06:09:41;;;;;;;21.10;8.23;;;12.80;99.90;;;;;;4918097;29;20496;-91
2021/09/24 06:12:07;;;;;;;20.13;9.63;;;12.80;99.90;;;;;;4935288;29;20028;-91
2021/09/24 06:14:33;;;;;;;36.00;10.82;;;12.90;99.90;;;;;;4918333;29;20128;-91
2021/09/24 06:16:58;;;;;;;19.48;7.85;;;12.80;99.90;;;;;;4918864;29;20074;-90
2021/09/24 06:19:24;;;;;;;14.93;7.15;;;12.90;99.90;;;;;;4919119;29;20092;-91
2021/09/24 06:21:51;;;;;;;15.40;7.68;;;12.90;99.90;;;;;;4918909;29;20031;-91
2021/09/24 06:24:17;;;;;;;15.55;7.97;;;12.90;99.90;;;;;;4913938;29;20038;-91
2021/09/24 06:26:45;;;;;;;16.48;8.10;;;12.90;99.90;;;;;;4918974;29;20023;-92
2021/09/24 06:29:11;;;;;;;20.77;8.38;;;12.90;99.90;;;;;;4919072;29;20103;-91
2021/09/24 06:31:36;;;;;;;13.15;7.18;;;12.90;99.90;;;;;;4918167;29;20050;-91
2021/09/24 06:34:02;;;;;;;10.90;6.22;;;12.90;99.90;;;;;;4918810;29;20493;-91
2021/09/24 06:36:28;;;;;;;17.50;7.45;;;12.90;99.90;;;;;;4918952;29;20478;-92
2021/09/24 06:38:54;;;;;;;19.60;9.15;;;13.00;99.90;;;;;;4918782;29;20030;-91
2021/09/24 06:41:19;;;;;;;15.43;8.23;;;13.00;99.90;;;;;;4918531;29;20028;-90
2021/09/24 06:43:45;;;;;;;15.30;8.07;;;13.00;99.90;;;;;;4918723;29;20046;-90
2021/09/24 06:46:11;;;;;;;15.93;8.00;;;13.00;99.90;;;;;;4918538;29;20393;-91
2021/09/24 06:48:36;;;;;;;20.13;8.95;;;13.10;99.90;;;;;;4925693;29;20023;-90
2021/09/24 06:51:03;;;;;;;18.15;9.00;;;13.10;99.90;;;;;;4917380;29;20038;-91
2021/09/24 06:53:29;;;;;;;15.00;7.80;;;13.10;99.90;;;;;;4917046;29;20030;-90
2021/09/24 06:55:57;;;;;;;17.27;9.00;;;13.20;99.90;;;;;;4917935;29;20032;-92
2021/09/24 06:58:23;;;;;;;19.98;8.68;;;13.20;99.90;;;;;;4936021;29;20107;-91
2021/09/24 07:00:49;;;;;;;10.00;6.03;;;13.30;99.90;;;;;;4921198;29;20047;-91
2021/09/24 07:03:14;;;;;;;16.85;9.02;;;13.30;99.90;;;;;;4924010;29;20087;-92
2021/09/24 07:05:40;;;;;;;20.42;8.40;;;13.30;99.90;;;;;;4918685;29;20031;-91
2021/09/24 07:08:06;;;;;;;17.70;8.52;;;13.30;99.90;;;;;;4918932;29;20030;-91
2021/09/24 07:10:31;;;;;;;16.35;8.15;;;13.40;99.90;;;;;;4918785;29;20024;-91
2021/09/24 07:12:57;;;;;;;15.93;7.20;;;13.40;99.90;;;;;;4921012;29;20038;-92
2021/09/24 07:15:23;;;;;;;13.07;7.78;;;13.50;99.90;;;;;;4927471;28;20050;-93
2021/09/24 07:17:49;;;;;;;15.70;6.45;;;13.50;99.90;;;;;;4938084;29;20023;-91
2021/09/24 07:20:15;;;;;;;16.02;7.55;;;13.60;99.90;;;;;;4936232;29;20035;-92
2021/09/24 07:22:41;;;;;;;15.38;6.90;;;13.60;99.90;;;;;;4918113;29;20032;-92
2021/09/24 07:25:08;;;;;;;14.45;6.60;;;13.60;99.90;;;;;;4918659;29;20150;-91
2021/09/24 07:27:33;;;;;;;16.60;6.95;;;13.70;99.90;;;;;;4917875;29;20114;-93
2021/09/24 07:30:00;;;;;;;10.52;6.38;;;13.70;99.90;;;;;;4921836;29;20501;-93
2021/09/24 07:32:26;;;;;;;14.43;6.20;;;13.70;99.90;;;;;;4923764;29;20024;-92
2021/09/24 07:34:51;;;;;;;13.85;6.22;;;13.80;99.90;;;;;;4918162;29;20036;-92
2021/09/24 07:37:17;;;;;;;14.10;5.47;;;13.80;99.90;;;;;;4922452;29;20512;-91
2021/09/24 07:39:43;;;;;;;11.15;4.85;;;13.90;99.90;;;;;;4937673;29;20032;-93
2021/09/24 07:42:10;;;;;;;10.30;4.20;;;14.00;99.90;;;;;;4937021;29;20023;-92
2021/09/24 07:44:36;;;;;;;9.38;4.05;;;14.10;99.90;;;;;;4935299;29;20050;-91
2021/09/24 07:47:02;;;;;;;10.55;5.45;;;14.10;99.90;;;;;;4937140;29;20023;-92
2021/09/24 07:49:28;;;;;;;10.30;4.47;;;14.20;99.90;;;;;;4923574;29;20489;-92
2021/09/24 07:51:53;;;;;;;7.53;4.03;;;14.20;99.90;;;;;;4926495;29;20050;-92
2021/09/24 07:54:21;;;;;;;8.60;4.32;;;14.30;99.90;;;;;;4921618;29;20028;-91
2021/09/24 07:56:49;;;;;;;16.35;4.75;;;14.40;99.90;;;;;;4919260;29;20024;-91
2021/09/24 07:59:14;;;;;;;17.30;4.90;;;14.40;99.90;;;;;;4926146;28;20027;-91
2021/09/24 08:01:41;;;;;;;11.70;3.55;;;14.40;99.90;;;;;;4920898;29;20055;-90
2021/09/24 08:04:06;;;;;;;6.82;3.28;;;14.40;99.90;;;;;;4929070;29;20051;-92
2021/09/24 08:06:32;;;;;;;7.60;3.13;;;14.40;99.90;;;;;;4929374;29;20023;-91
2021/09/24 08:08:58;;;;;;;5.38;2.72;;;14.40;99.90;;;;;;4912380;29;20118;-93
2021/09/24 08:11:23;;;;;;;10.75;3.22;;;14.40;99.90;;;;;;4937500;29;20024;-90
2021/09/24 08:13:49;;;;;;;9.50;2.92;;;14.40;99.90;;;;;;4920937;29;20036;-90
2021/09/24 08:16:17;;;;;;;11.50;3.83;;;14.50;99.90;;;;;;4919897;29;20027;-91
2021/09/24 08:18:43;;;;;;;10.18;4.47;;;14.50;99.90;;;;;;4920255;29;20576;-91
2021/09/24 08:21:09;;;;;;;10.82;4.05;;;14.50;99.90;;;;;;4920534;29;20110;-91
2021/09/24 08:23:34;;;;;;;8.55;4.00;;;14.50;99.90;;;;;;4920166;29;20032;-92
2021/09/24 08:26:00;;;;;;;12.18;5.05;;;14.50;99.90;;;;;;4920254;29;20381;-91
2021/09/24 08:28:26;;;;;;;13.98;4.47;;;14.50;99.90;;;;;;4919933;29;20492;-90
2021/09/24 08:30:52;;;;;;;12.70;4.55;;;14.50;99.90;;;;;;4920105;29;20042;-91
2021/09/24 08:33:18;;;;;;;8.82;4.28;;;14.50;99.90;;;;;;4920053;29;20118;-91
2021/09/24 08:35:44;;;;;;;12.02;4.70;;;14.60;99.90;;;;;;4915219;29;20672;-91
2021/09/24 08:38:10;;;;;;;8.75;4.80;;;14.60;99.90;;;;;;4920692;29;20023;-91
2021/09/24 08:40:37;;;;;;;8.68;3.42;;;14.50;99.90;;;;;;4919731;29;20028;-92
2021/09/24 08:43:04;;;;;;;11.07;3.30;;;14.50;99.90;;;;;;4920491;29;20079;-91
2021/09/24 08:45:32;;;;;;;8.80;2.80;;;14.50;99.90;;;;;;4920083;29;20024;-91
2021/09/24 08:48:06;;;;;;;6.07;3.10;;;14.50;99.90;;;;;;4919866;29;20397;-89
2021/09/24 08:50:35;;;;;;;7.28;2.85;;;14.50;99.90;;;;;;4933482;29;20063;-89
2021/09/24 08:53:03;;;;;;;9.63;3.10;;;14.60;99.90;;;;;;4919211;29;20032;-90
2021/09/24 08:55:29;;;;;;;7.65;2.75;;;14.70;99.90;;;;;;4919174;29;20034;-91
2021/09/24 08:57:56;;;;;;;13.65;3.58;;;14.70;99.90;;;;;;4919632;29;20035;-92
2021/09/24 09:00:22;;;;;;;7.28;2.67;;;14.70;99.90;;;;;;4919348;29;20428;-89
2021/09/24 09:02:55;;;;;;;9.30;3.53;;;14.80;99.90;;;;;;4918915;29;20059;-91
2021/09/24 09:05:22;;;;;;;8.27;3.70;;;14.80;99.90;;;;;;4918254;29;20035;-90
2021/09/24 09:07:49;;;;;;;5.60;4.00;;;14.80;99.90;;;;;;4918681;29;20122;-90
2021/09/24 09:10:16;;;;;;;10.68;3.90;;;14.70;99.90;;;;;;4918543;29;20035;-89
2021/09/24 09:12:42;;;;;;;14.50;4.22;;;14.70;99.90;;;;;;4918573;29;20045;-89
2021/09/24 09:15:13;;;;;;;10.85;4.25;;;14.70;99.90;;;;;;4918377;29;20034;-89
2021/09/24 09:17:44;;;;;;;10.57;4.18;;;14.70;99.90;;;;;;4918390;29;20528;-89
2021/09/24 09:20:10;;;;;;;;;;;14.60;99.90;;;;;;4936794;29;20028;-88
2021/09/24 09:22:36;;;;;;;11.82;5.38;;;14.70;99.90;;;;;;4919775;29;20006;-88
2021/09/24 09:25:02;;;;;;;17.83;4.78;;;14.70;99.90;;;;;;4937005;29;20066;-88
2021/09/24 09:27:28;;;;;;;11.55;5.30;;;14.70;99.90;;;;;;4919920;29;20128;-90
2021/09/24 09:29:59;;;;;;;12.70;5.03;;;14.70;99.90;;;;;;4919945;29;20055;-89
2021/09/24 09:32:25;;;;;;;11.60;4.93;;;14.70;99.90;;;;;;4919886;29;20031;-89
2021/09/24 09:34:51;;;;;;;13.57;4.70;;;14.70;99.90;;;;;;4919704;29;20036;-90
2021/09/24 09:37:20;;;;;;;9.85;5.18;;;14.70;99.90;;;;;;4919897;29;20023;-89
2021/09/24 09:40:04;;;;;;;12.93;4.95;;;14.70;99.90;;;;;;4920023;29;20079;-90
2021/09/24 09:42:38;;;;;;;15.15;5.05;;;14.70;99.90;;;;;;4919812;29;20477;-88
2021/09/24 09:45:07;;;;;;;13.23;5.13;;;14.70;99.90;;;;;;4936498;29;20040;-90
2021/09/24 09:47:36;;;;;;;12.77;6.38;;;14.70;99.90;;;;;;4919468;29;20031;-90
2021/09/24 09:50:20;;;;;;;11.20;5.50;;;14.70;99.90;;;;;;4919529;29;20501;-90
2021/09/24 09:53:07;;;;;;;11.13;5.25;;;14.70;99.90;;;;;;4919822;29;20031;-89
2021/09/24 09:55:35;;;;;;;9.52;5.25;;;14.70;99.90;;;;;;4919397;29;20488;-89
2021/09/24 09:58:06;;;;;;;9.07;5.78;;;14.70;99.90;;;;;;4919272;29;20023;-88
2021/09/24 10:00:33;;;;;;;12.50;5.85;;;14.70;99.90;;;;;;4918946;29;20062;-89
2021/09/24 10:03:04;;;;;;;11.35;6.07;;;14.70;99.90;;;;;;4918761;29;20042;-89
2021/09/24 10:05:41;;;;;;;9.93;5.68;;;14.80;99.90;;;;;;4919172;29;20032;-89
2021/09/24 10:08:26;;;;;;;9.68;6.10;;;14.80;99.90;;;;;;4918596;29;20020;-89
2021/09/24 10:10:55;;;;;;;14.48;5.57;;;14.80;99.90;;;;;;4919284;29;20055;-89
2021/09/24 10:13:21;;;;;;;10.20;6.30;;;14.80;99.90;;;;;;4919088;29;20038;-89
2021/09/24 10:15:48;;;;;;;10.88;6.22;;;14.80;99.90;;;;;;4919038;29;20052;-89
2021/09/24 10:18:14;;;;;;;9.23;5.82;;;14.80;99.90;;;;;;4919117;29;20046;-89
2021/09/24 10:20:40;;;;;;;12.38;6.32;;;14.90;99.90;;;;;;4919010;29;20027;-89
2021/09/24 10:23:07;;;;;;;10.10;6.00;;;14.90;99.90;;;;;;4919062;29;20028;-89
2021/09/24 10:25:34;;;;;;;7.70;6.00;;;14.90;99.90;;;;;;4918934;29;20035;-90
2021/09/24 10:28:04;;;;;;;8.23;5.80;;;14.90;99.90;;;;;;4920825;29;20020;-89
2021/09/24 10:30:32;;;;;;;9.43;4.82;;;15.00;99.90;;;;;;4918655;29;20019;-89
2021/09/24 10:33:04;;;;;;;8.25;4.72;;;15.00;99.90;;;;;;4935153;29;20035;-89
2021/09/24 10:35:53;;;;;;;7.25;3.70;;;15.10;99.90;;;;;;4918167;29;20036;-90
2021/09/24 10:38:24;;;;;;;6.68;3.90;;;15.10;99.90;;;;;;4919176;29;20035;-90
2021/09/24 10:41:07;;;;;;;5.20;3.70;;;15.20;99.90;;;;;;4936027;29;20485;-89
2021/09/24 10:43:46;;;;;;;7.53;3.50;;;15.30;99.90;;;;;;4919442;29;20036;-89
2021/09/24 10:46:23;;;;;;;5.40;3.72;;;15.30;99.90;;;;;;4918613;29;20463;-88
2021/09/24 10:49:09;;;;;;;5.22;2.97;;;15.40;99.90;;;;;;4919042;29;20537;-89
2021/09/24 10:51:37;;;;;;;5.80;3.25;;;15.40;99.90;;;;;;4919037;29;20071;-89
2021/09/24 10:54:16;;;;;;;5.22;3.80;;;15.40;99.90;;;;;;4918380;29;20024;-90
2021/09/24 10:57:05;;;;;;;5.45;3.67;;;15.50;99.90;;;;;;4919093;29;20028;-88
2021/09/24 10:59:33;;;;;;;5.45;3.45;;;15.50;99.90;;;;;;4918567;29;20058;-89
2021/09/24 11:02:00;;;;;;;8.18;4.35;;;15.60;99.90;;;;;;4935658;29;20138;-90
2021/09/24 11:04:58;;;;;;;8.00;5.68;;;15.60;99.90;;;;;;4918730;29;20035;-89
2021/09/24 11:07:32;;;;;;;6.57;5.32;;;15.60;99.90;;;;;;4898063;29;20043;-89
2021/09/24 11:09:58;;;;;;;6.10;4.00;;;15.60;99.90;;;;;;4918864;29;20016;-89
2021/09/24 11:12:26;;;;;;;5.00;3.60;;;15.60;99.90;;;;;;4918223;29;20063;-89
2021/09/24 11:15:08;;;;;;;8.05;5.70;;;15.60;99.90;;;;;;4918878;29;20024;-89
2021/09/24 11:17:43;;;;;;;9.38;6.13;;;15.60;99.90;;;;;;4918785;29;20051;-90
2021/09/24 11:20:30;;;;;;;9.50;5.95;;;15.70;99.90;;;;;;4919108;29;20127;-90
2021/09/24 11:22:57;;;;;;;12.38;6.32;;;15.70;99.90;;;;;;4927649;29;20024;-89
2021/09/24 11:25:23;;;;;;;9.27;6.07;;;15.70;99.90;;;;;;4937467;29;20048;-89
2021/09/24 11:27:48;;;;;;;6.72;4.57;;;15.70;99.90;;;;;;4938636;29;20103;-89
2021/09/24 11:30:19;;;;;;;6.22;4.45;;;15.70;99.90;;;;;;4931261;29;20371;-90
2021/09/24 11:32:46;;;;;;;;;;;15.80;99.90;;;;;;4922075;29;20038;-89
2021/09/24 11:35:15;;;;;;;11.23;5.88;;;15.80;99.90;;;;;;4922012;29;20005;-89
2021/09/24 11:37:46;;;;;;;11.48;5.28;;;15.80;99.90;;;;;;4921725;29;20028;-89
2021/09/24 11:40:19;;;;;;;11.70;8.70;;;15.80;99.90;;;;;;4921751;29;20042;-89
2021/09/24 11:42:50;;;;;;;18.13;9.07;;;15.80;99.90;;;;;;4921610;29;20027;-90
2021/09/24 11:45:23;;;;;;;16.25;10.05;;;15.80;99.90;;;;;;4921399;29;20043;-90
2021/09/24 11:48:09;;;;;;;20.85;13.68;;;15.90;99.90;;;;;;4921531;29;20126;-90
2021/09/24 11:50:39;;;;;;;15.77;11.43;;;16.00;99.90;;;;;;4921535;29;20035;-90
2021/09/24 11:53:09;;;;;;;22.65;16.20;;;16.00;99.90;;;;;;4924582;29;20031;-90
2021/09/24 11:55:45;;;;;;;21.25;16.08;;;16.00;99.90;;;;;;4940221;29;20083;-89
2021/09/24 11:58:23;;;;;;;19.83;15.52;;;16.10;99.90;;;;;;4940383;29;20481;-90
2021/09/24 12:00:51;;;;;;;24.65;19.80;;;16.20;99.90;;;;;;4929809;29;20138;-91
2021/09/24 12:03:32;;;;;;;23.55;19.33;;;16.20;99.90;;;;;;4920529;29;20649;-91
2021/09/24 12:06:05;;;;;;;22.65;19.13;;;16.30;99.90;;;;;;4934637;29;20063;-90
2021/09/24 12:08:32;;;;;;;19.95;17.05;;;16.30;99.90;;;;;;4935717;29;20099;-90
2021/09/24 12:10:59;;;;;;;20.48;18.05;;;16.30;99.90;;;;;;4919244;29;20552;-90
2021/09/24 12:13:36;;;;;;;27.75;22.10;;;16.40;99.90;;;;;;4918513;29;20031;-90
2021/09/24 12:16:02;;;;;;;20.75;18.23;;;16.40;99.90;;;;;;4934711;29;20035;-90
2021/09/24 12:18:57;;;;;;;21.77;18.77;;;16.40;99.90;;;;;;4918523;29;20035;-90
2021/09/24 12:21:30;;;;;;;21.95;18.15;;;16.50;99.90;;;;;;4918481;29;20059;-90
2021/09/24 12:23:57;;;;;;;23.67;19.75;;;16.50;99.90;;;;;;4924974;29;20394;-91
2021/09/24 12:26:40;;;;;;;21.50;18.40;;;16.50;99.90;;;;;;4919595;29;20031;-90
2021/09/24 12:29:21;;;;;;;21.48;17.70;;;16.60;99.90;;;;;;4918073;29;20031;-91
2021/09/24 12:31:51;;;;;;;19.23;17.02;;;16.60;99.90;;;;;;4917601;29;20087;-89
2021/09/24 12:34:23;;;;;;;21.45;16.45;;;16.60;99.90;;;;;;4916379;29;20039;-89
2021/09/24 12:36:57;;;;;;;20.50;15.73;;;16.70;99.90;;;;;;4919058;29;20035;-89
2021/09/24 12:39:25;;;;;;;18.50;12.60;;;16.70;99.90;;;;;;4936246;29;20047;-89
2021/09/24 12:41:52;;;;;;;11.82;10.07;;;16.70;99.90;;;;;;4936455;29;20027;-90